createdAt,value
2018-12-06T00:01:31.714Z,44.40
2018-12-06T00:04:00.305Z,46.00
2018-12-06T00:06:28.893Z,45.20
2018-12-06T00:08:57.485Z,44.27
2018-12-06T00:11:26.073Z,44.80
2018-12-06T00:13:54.669Z,45.13
2018-12-06T00:16:23.251Z,42.93
2018-12-06T00:19:03.093Z,44.13
2018-12-06T00:21:31.687Z,45.33
2018-12-06T00:24:00.249Z,44.60
2018-12-06T00:26:28.833Z,44.87
2018-12-06T00:28:57.780Z,45.23
2018-12-06T00:31:26.355Z,44.10
2018-12-06T00:33:54.927Z,43.90
2018-12-06T00:36:23.512Z,45.60
2018-12-06T00:38:52.089Z,45.60
2018-12-06T00:41:20.680Z,44.70
2018-12-06T00:43:49.275Z,42.20
2018-12-06T00:46:17.843Z,46.57
2018-12-06T00:48:46.428Z,48.00
2018-12-06T00:51:15.020Z,45.87
2018-12-06T00:53:43.589Z,47.07
2018-12-06T00:56:12.181Z,48.00
2018-12-06T00:58:40.752Z,45.73
2018-12-06T01:01:09.326Z,46.03
2018-12-06T01:03:37.913Z,49.00
2018-12-06T01:06:06.485Z,49.53
2018-12-06T01:08:35.097Z,50.17
2018-12-06T01:11:03.682Z,48.73
2018-12-06T01:13:32.256Z,50.37
2018-12-06T01:16:00.859Z,53.20
2018-12-06T01:18:29.437Z,52.17
2018-12-06T01:20:58.001Z,53.40
2018-12-06T01:23:26.588Z,51.77
2018-12-06T01:25:55.170Z,54.83
2018-12-06T01:28:23.744Z,51.13
2018-12-06T01:30:52.382Z,48.90
2018-12-06T01:33:20.972Z,50.73
2018-12-06T01:35:49.544Z,50.87
2018-12-06T01:38:18.148Z,54.30
2018-12-06T01:40:46.713Z,50.97
2018-12-06T01:43:15.252Z,51.10
2018-12-06T01:45:43.826Z,53.00
2018-12-06T01:48:12.594Z,51.73
2018-12-06T01:50:41.173Z,51.70
2018-12-06T01:53:09.761Z,47.10
2018-12-06T01:55:38.344Z,48.90
2018-12-06T01:58:06.932Z,48.93
2018-12-06T02:00:35.521Z,47.70
2018-12-06T02:03:04.128Z,48.73
2018-12-06T02:05:32.829Z,47.70
2018-12-06T02:08:01.397Z,48.67
2018-12-06T02:10:29.990Z,46.53
2018-12-06T02:12:58.573Z,46.17
2018-12-06T02:15:27.144Z,45.27
2018-12-06T02:17:56.057Z,48.97
2018-12-06T02:20:24.647Z,47.10
2018-12-06T02:22:53.244Z,46.87
2018-12-06T02:25:21.809Z,49.13
2018-12-06T02:27:50.379Z,52.00
2018-12-06T02:30:18.993Z,48.93
2018-12-06T02:32:47.557Z,51.63
2018-12-06T02:35:16.140Z,49.10
2018-12-06T02:37:44.744Z,49.90
2018-12-06T02:40:13.575Z,52.73
2018-12-06T02:42:42.156Z,47.73
2018-12-06T02:45:12.737Z,48.70
2018-12-06T02:47:41.357Z,47.80
2018-12-06T02:50:09.937Z,49.30
2018-12-06T02:52:38.529Z,46.70
2018-12-06T02:55:07.153Z,45.77
2018-12-06T02:57:37.716Z,47.73
2018-12-06T03:00:06.585Z,48.30
2018-12-06T03:02:35.146Z,49.60
2018-12-06T03:05:03.898Z,48.13
2018-12-06T03:07:32.478Z,47.13
2018-12-06T03:10:01.010Z,46.83
2018-12-06T03:12:29.661Z,45.93
2018-12-06T03:14:58.572Z,49.47
2018-12-06T03:17:27.143Z,45.80
2018-12-06T03:19:55.737Z,41.47
2018-12-06T03:22:24.309Z,47.63
2018-12-06T03:24:52.898Z,50.50
2018-12-06T03:27:21.460Z,49.37
2018-12-06T03:29:50.037Z,49.07
2018-12-06T03:32:18.634Z,48.90
2018-12-06T03:34:47.221Z,47.63
2018-12-06T03:37:15.809Z,45.63
2018-12-06T03:39:44.378Z,45.83
2018-12-06T03:42:13.041Z,46.23
2018-12-06T03:44:41.650Z,45.43
2018-12-06T03:47:10.370Z,46.60
2018-12-06T03:49:38.937Z,46.27
2018-12-06T03:52:07.677Z,51.43
2018-12-06T03:54:36.249Z,51.40
2018-12-06T03:57:04.858Z,53.07
2018-12-06T03:59:33.421Z,54.33
2018-12-06T04:02:02.008Z,52.43
2018-12-06T04:04:30.612Z,50.37
2018-12-06T04:06:59.190Z,50.80
2018-12-06T04:09:27.764Z,47.87
2018-12-06T04:11:56.386Z,54.33
2018-12-06T04:14:24.977Z,53.63
2018-12-06T04:16:53.574Z,53.00
2018-12-06T04:19:22.294Z,52.20
2018-12-06T04:21:50.861Z,50.67
2018-12-06T04:24:19.440Z,53.00
2018-12-06T04:26:48.029Z,52.73
2018-12-06T04:29:16.918Z,49.63
2018-12-06T04:31:45.516Z,52.10
2018-12-06T04:34:14.101Z,49.50
2018-12-06T04:36:42.684Z,49.37
2018-12-06T04:39:11.287Z,48.83
2018-12-06T04:41:39.868Z,48.43
2018-12-06T04:44:08.433Z,49.47
2018-12-06T04:46:37.020Z,49.17
2018-12-06T04:49:05.612Z,48.00
2018-12-06T04:51:34.348Z,47.33
2018-12-06T04:54:02.971Z,48.23
2018-12-06T04:56:31.596Z,45.87
2018-12-06T04:59:00.215Z,44.90
2018-12-06T05:01:28.835Z,47.37
2018-12-06T05:03:57.855Z,48.30
2018-12-06T05:06:26.499Z,48.53
2018-12-06T05:08:55.118Z,48.23
2018-12-06T05:11:23.764Z,47.17
2018-12-06T05:13:52.404Z,47.73
2018-12-06T05:16:21.030Z,44.97
2018-12-06T05:18:49.660Z,47.27
2018-12-06T05:21:18.291Z,47.27
2018-12-06T05:23:46.943Z,49.30
2018-12-06T05:26:15.554Z,47.47
2018-12-06T05:28:44.192Z,46.60
2018-12-06T05:31:12.807Z,48.60
2018-12-06T05:33:41.403Z,44.60
2018-12-06T05:36:10.047Z,46.30
2018-12-06T05:38:38.762Z,46.60
2018-12-06T05:41:07.387Z,45.80
2018-12-06T05:43:36.007Z,48.70
2018-12-06T05:46:04.717Z,45.30
2018-12-06T05:48:33.335Z,44.00
2018-12-06T05:51:01.951Z,44.43
2018-12-06T05:53:30.586Z,44.77
2018-12-06T05:55:59.194Z,42.90
2018-12-06T05:58:27.774Z,45.30
2018-12-06T06:00:56.522Z,46.37
2018-12-06T06:03:25.126Z,43.80
2018-12-06T06:05:53.754Z,41.27
2018-12-06T06:08:22.495Z,42.30
2018-12-06T06:10:51.123Z,42.97
2018-12-06T06:13:19.744Z,46.37
2018-12-06T06:15:48.402Z,42.67
2018-12-06T06:18:17.031Z,42.33
2018-12-06T06:20:45.670Z,41.47
2018-12-06T06:23:14.300Z,43.57
2018-12-06T06:25:42.970Z,41.23
2018-12-06T06:28:11.683Z,41.77
2018-12-06T06:30:40.314Z,44.70
2018-12-06T06:33:08.917Z,41.10
2018-12-06T06:35:37.550Z,43.50
2018-12-06T06:38:06.195Z,49.10
2018-12-06T06:40:34.848Z,49.47
2018-12-06T06:43:03.458Z,52.80
2018-12-06T06:45:32.104Z,53.50
2018-12-06T06:48:00.759Z,51.87
2018-12-06T06:50:29.386Z,47.33
2018-12-06T06:52:57.987Z,50.13
2018-12-06T06:55:26.610Z,49.50
2018-12-06T06:57:55.231Z,49.77
2018-12-06T07:00:23.864Z,49.87
2018-12-06T07:02:52.503Z,47.50
2018-12-06T07:05:21.104Z,45.57
2018-12-06T07:07:49.717Z,47.30
2018-12-06T07:10:18.384Z,48.03
2018-12-06T07:12:47.026Z,45.13
2018-12-06T07:15:15.699Z,49.17
2018-12-06T07:17:44.726Z,48.97
2018-12-06T07:20:13.363Z,47.30
2018-12-06T07:22:41.996Z,45.23
2018-12-06T07:25:10.626Z,46.80
2018-12-06T07:27:39.263Z,46.50
2018-12-06T07:30:12.332Z,44.90
2018-12-06T07:32:38.805Z,48.43
2018-12-06T07:35:07.444Z,50.07
2018-12-06T07:37:36.055Z,48.07
2018-12-06T07:40:04.819Z,47.17
2018-12-06T07:42:33.551Z,52.77
2018-12-06T07:45:02.183Z,54.57
2018-12-06T07:47:30.819Z,56.97
2018-12-06T07:49:59.428Z,55.90
2018-12-06T07:52:28.067Z,55.53
2018-12-06T07:54:56.692Z,57.77
2018-12-06T07:57:25.310Z,57.33
2018-12-06T07:59:53.981Z,57.53
2018-12-06T08:02:22.598Z,60.17
2018-12-06T08:04:51.237Z,57.37
2018-12-06T08:07:19.906Z,57.87
2018-12-06T08:09:49.351Z,57.47
2018-12-06T08:12:17.969Z,63.40
2018-12-06T08:14:46.626Z,59.40
2018-12-06T08:17:15.240Z,60.97
2018-12-06T08:19:43.895Z,57.80
2018-12-06T08:22:12.578Z,54.07
2018-12-06T08:24:41.237Z,56.63
2018-12-06T08:27:09.866Z,55.97
2018-12-06T08:29:38.495Z,57.20
2018-12-06T08:32:07.394Z,55.40
2018-12-06T08:34:36.027Z,55.67
2018-12-06T08:37:04.661Z,54.83
2018-12-06T08:39:33.294Z,55.23
2018-12-06T08:42:01.959Z,59.07
2018-12-06T08:44:30.602Z,60.80
2018-12-06T08:46:59.227Z,59.07
2018-12-06T08:49:27.862Z,60.57
2018-12-06T08:51:56.522Z,62.73
2018-12-06T08:54:25.139Z,68.83
2018-12-06T08:56:53.770Z,62.20
2018-12-06T08:59:22.399Z,63.80
2018-12-06T09:01:51.017Z,63.50
2018-12-06T09:04:19.672Z,78.23
2018-12-06T09:06:48.300Z,103.00
2018-12-06T09:09:16.971Z,113.83
2018-12-06T09:11:45.642Z,109.83
2018-12-06T09:14:14.262Z,99.27
2018-12-06T09:16:42.986Z,83.90
2018-12-06T09:19:11.621Z,87.60
2018-12-06T09:21:40.255Z,92.20
2018-12-06T09:24:08.901Z,99.53
2018-12-06T09:26:37.524Z,112.97
2018-12-06T09:29:06.147Z,110.27
2018-12-06T09:31:34.893Z,87.63
2018-12-06T09:34:07.826Z,90.20
2018-12-06T09:36:37.819Z,80.10
2018-12-06T09:39:09.620Z,78.33
2018-12-06T09:41:38.262Z,68.73
2018-12-06T09:44:06.904Z,66.83
2018-12-06T09:46:35.543Z,61.17
2018-12-06T09:49:05.083Z,56.80
2018-12-06T09:51:33.743Z,53.80
2018-12-06T09:54:02.399Z,52.53
2018-12-06T09:56:31.335Z,53.00
2018-12-06T09:58:59.958Z,52.60
2018-12-06T10:01:28.665Z,50.07
2018-12-06T10:03:57.432Z,48.10
2018-12-06T10:06:26.086Z,44.87
2018-12-06T10:08:54.802Z,45.27
2018-12-06T10:11:23.410Z,45.13
2018-12-06T10:13:52.050Z,41.83
2018-12-06T10:16:20.702Z,44.60
2018-12-06T10:18:49.273Z,40.50
2018-12-06T10:21:17.922Z,41.83
2018-12-06T10:23:46.546Z,36.80
2018-12-06T10:26:15.241Z,39.17
2018-12-06T10:28:45.721Z,39.30
2018-12-06T10:31:14.347Z,33.80
2018-12-06T10:33:42.970Z,35.57
2018-12-06T10:36:11.587Z,33.60
2018-12-06T10:38:40.223Z,32.70
2018-12-06T10:41:08.864Z,32.57
2018-12-06T10:43:37.498Z,31.70
2018-12-06T10:46:06.142Z,29.97
2018-12-06T10:48:34.794Z,27.60
2018-12-06T10:51:14.592Z,27.13
2018-12-06T10:53:43.216Z,26.43
2018-12-06T10:56:11.825Z,24.50
2018-12-06T10:58:40.459Z,25.60
2018-12-06T11:01:09.323Z,24.27
2018-12-06T11:03:43.275Z,39.40
2018-12-06T11:06:11.923Z,53.73
2018-12-06T11:08:40.534Z,53.13
2018-12-06T11:11:09.183Z,35.50
2018-12-06T11:13:37.796Z,37.57
2018-12-06T11:16:06.415Z,37.13
2018-12-06T11:18:35.057Z,36.87
2018-12-06T11:21:03.784Z,40.43
2018-12-06T11:23:32.473Z,35.13
2018-12-06T11:26:01.439Z,32.57
2018-12-06T11:28:30.149Z,33.70
2018-12-06T11:30:58.799Z,31.60
2018-12-06T11:33:27.399Z,31.00
2018-12-06T11:35:56.394Z,31.67
2018-12-06T11:38:25.005Z,29.23
2018-12-06T11:40:53.627Z,32.47
2018-12-06T11:43:22.261Z,32.83
2018-12-06T11:45:50.895Z,33.20
2018-12-06T11:48:26.710Z,35.03
2018-12-06T11:50:50.208Z,33.40
2018-12-06T11:53:19.363Z,32.37
2018-12-06T11:55:48.110Z,32.80
2018-12-06T11:58:16.706Z,32.07
2018-12-06T12:00:52.528Z,32.87
2018-12-06T12:03:34.438Z,30.10
2018-12-06T12:06:03.089Z,35.77
2018-12-06T12:08:31.699Z,35.07
2018-12-06T12:11:00.342Z,34.57
2018-12-06T12:13:28.970Z,35.50
2018-12-06T12:15:57.597Z,32.87
2018-12-06T12:18:27.171Z,34.50
2018-12-06T12:20:55.774Z,35.47
2018-12-06T12:23:24.408Z,35.80
2018-12-06T12:25:53.043Z,33.73
2018-12-06T12:28:21.675Z,35.17
2018-12-06T12:30:50.345Z,33.03
2018-12-06T12:33:18.980Z,34.23
2018-12-06T12:35:47.595Z,35.17
2018-12-06T12:38:16.215Z,34.60
2018-12-06T12:40:44.879Z,35.40
2018-12-06T12:43:13.499Z,35.00
2018-12-06T12:45:42.587Z,34.50
2018-12-06T12:48:11.251Z,31.97
2018-12-06T12:50:39.902Z,34.20
2018-12-06T12:53:08.522Z,33.33
2018-12-06T12:55:37.211Z,33.60
2018-12-06T12:58:05.814Z,32.17
2018-12-06T13:00:34.432Z,35.30
2018-12-06T13:03:03.087Z,31.80
2018-12-06T13:05:31.707Z,33.03
2018-12-06T13:08:00.327Z,30.83
2018-12-06T13:10:29.090Z,33.00
2018-12-06T13:12:57.707Z,32.73
2018-12-06T13:15:26.339Z,32.03
2018-12-06T13:17:54.966Z,33.63
2018-12-06T13:20:23.612Z,33.80
2018-12-06T13:22:52.298Z,33.90
2018-12-06T13:25:20.940Z,36.60
2018-12-06T13:27:49.568Z,32.90
2018-12-06T13:30:18.342Z,33.27
2018-12-06T13:32:47.007Z,34.37
2018-12-06T13:35:15.654Z,36.53
2018-12-06T13:37:44.263Z,33.70
2018-12-06T13:40:12.943Z,31.20
2018-12-06T13:42:41.571Z,31.17
2018-12-06T13:45:10.482Z,28.53
2018-12-06T13:47:39.142Z,30.33
2018-12-06T13:50:08.147Z,28.00
2018-12-06T13:52:36.774Z,28.93
2018-12-06T13:55:06.027Z,28.67
2018-12-06T13:57:34.780Z,29.33
2018-12-06T14:00:03.907Z,28.80
2018-12-06T14:02:32.614Z,26.90
2018-12-06T14:05:01.272Z,29.10
2018-12-06T14:07:29.876Z,26.23
2018-12-06T14:09:58.496Z,25.83
2018-12-06T14:12:27.150Z,23.30
2018-12-06T14:14:55.771Z,25.93
2018-12-06T14:17:24.454Z,23.27
2018-12-06T14:19:53.082Z,22.30
2018-12-06T14:22:21.686Z,23.13
2018-12-06T14:24:50.331Z,23.57
2018-12-06T14:27:18.948Z,23.53
2018-12-06T14:29:47.641Z,24.13
2018-12-06T14:32:16.251Z,22.50
2018-12-06T14:34:45.163Z,25.13
2018-12-06T14:37:13.843Z,24.03
2018-12-06T14:39:42.488Z,22.70
2018-12-06T14:42:11.095Z,20.67
2018-12-06T14:44:39.742Z,21.50
2018-12-06T14:47:08.370Z,24.57
2018-12-06T14:49:36.979Z,23.70
2018-12-06T14:52:05.619Z,24.00
2018-12-06T14:54:34.240Z,22.20
2018-12-06T14:57:02.898Z,22.77
2018-12-06T14:59:31.506Z,20.87
2018-12-06T15:02:00.119Z,22.67
2018-12-06T15:04:29.792Z,24.90
2018-12-06T15:06:58.471Z,24.30
2018-12-06T15:09:27.103Z,24.97
2018-12-06T15:11:55.751Z,28.13
2018-12-06T15:14:24.383Z,27.03
2018-12-06T15:16:53.639Z,25.33
2018-12-06T15:19:22.377Z,24.00
2018-12-06T15:21:50.990Z,24.60
2018-12-06T15:24:19.679Z,25.57
2018-12-06T15:26:48.308Z,25.50
2018-12-06T15:29:16.885Z,25.70
2018-12-06T15:31:45.531Z,25.03
2018-12-06T15:34:14.159Z,23.87
2018-12-06T15:36:42.812Z,24.03
2018-12-06T15:39:11.456Z,22.70
2018-12-06T15:41:40.158Z,23.10
2018-12-06T15:44:08.809Z,25.23
2018-12-06T15:46:37.387Z,23.60
2018-12-06T15:49:06.011Z,27.93
2018-12-06T15:51:35.045Z,24.33
2018-12-06T15:54:03.678Z,23.20
2018-12-06T15:56:32.283Z,23.80
2018-12-06T15:59:00.895Z,24.80
2018-12-06T16:01:29.621Z,23.77
2018-12-06T16:03:58.251Z,24.40
2018-12-06T16:07:27.556Z,25.30
2018-12-06T16:09:56.181Z,26.90
2018-12-06T16:12:24.815Z,25.23
2018-12-06T16:14:53.466Z,24.50
2018-12-06T16:17:22.095Z,24.40
2018-12-06T16:19:50.667Z,25.30
2018-12-06T16:22:19.350Z,24.07
2018-12-06T16:24:47.980Z,25.80
2018-12-06T16:27:16.591Z,24.53
2018-12-06T16:29:51.421Z,22.43
2018-12-06T16:32:15.883Z,24.77
2018-12-06T16:34:44.503Z,26.10
2018-12-06T16:37:13.152Z,25.93
2018-12-06T16:39:41.783Z,25.37
2018-12-06T16:42:10.397Z,23.50
2018-12-06T16:44:39.039Z,24.10
2018-12-06T16:47:07.675Z,24.00
2018-12-06T16:49:36.476Z,24.87
2018-12-06T16:52:05.151Z,23.17
2018-12-06T16:54:33.784Z,23.57
2018-12-06T16:57:02.544Z,24.97
2018-12-06T16:59:31.179Z,25.00
2018-12-06T17:01:59.803Z,25.87
2018-12-06T17:04:28.455Z,24.47
2018-12-06T17:06:57.089Z,23.70
2018-12-06T17:09:25.774Z,23.27
2018-12-06T17:11:54.411Z,24.37
2018-12-06T17:14:23.028Z,23.10
2018-12-06T17:16:52.339Z,24.30
2018-12-06T17:19:20.961Z,22.07
2018-12-06T17:21:49.611Z,25.33
2018-12-06T17:24:18.275Z,23.23
2018-12-06T17:26:46.887Z,24.17
2018-12-06T17:29:15.516Z,25.97
2018-12-06T17:31:44.279Z,24.57
2018-12-06T17:34:12.902Z,25.93
2018-12-06T17:36:41.563Z,26.80
2018-12-06T17:39:10.185Z,24.20
2018-12-06T17:41:38.831Z,24.00
2018-12-06T17:44:07.478Z,24.90
2018-12-06T17:46:36.092Z,25.73
2018-12-06T17:49:04.739Z,25.87
2018-12-06T17:51:33.701Z,24.67
2018-12-06T17:54:02.324Z,23.33
2018-12-06T17:56:31.091Z,24.60
2018-12-06T17:58:59.708Z,24.00
2018-12-06T18:01:28.475Z,23.97
2018-12-06T18:03:57.194Z,24.33
2018-12-06T18:06:25.824Z,23.90
2018-12-06T18:08:54.466Z,23.73
2018-12-06T18:11:23.107Z,24.43
2018-12-06T18:13:51.755Z,24.13
2018-12-06T18:16:20.403Z,23.53
2018-12-06T18:18:49.030Z,23.80
2018-12-06T18:21:17.687Z,25.30
2018-12-06T18:23:46.318Z,24.87
2018-12-06T18:26:14.967Z,24.70
2018-12-06T18:28:43.580Z,24.33
2018-12-06T18:31:12.347Z,23.20
2018-12-06T18:33:41.863Z,25.20
2018-12-06T18:36:10.484Z,26.00
2018-12-06T18:38:39.176Z,24.37
2018-12-06T18:41:07.935Z,23.67
2018-12-06T18:43:36.592Z,23.30
2018-12-06T18:46:05.215Z,25.60
2018-12-06T18:48:33.847Z,21.87
2018-12-06T18:51:02.501Z,25.30
2018-12-06T18:53:31.481Z,24.87
2018-12-06T18:56:00.459Z,24.63
2018-12-06T18:58:34.404Z,25.03
2018-12-06T19:00:59.745Z,25.63
2018-12-06T19:03:28.364Z,25.07
2018-12-06T19:05:56.994Z,25.90
2018-12-06T19:08:25.639Z,27.20
2018-12-06T19:10:54.263Z,26.33
2018-12-06T19:13:22.913Z,27.87
2018-12-06T19:15:51.674Z,25.53
2018-12-06T19:18:20.315Z,23.57
2018-12-06T19:20:48.926Z,23.97
2018-12-06T19:23:17.535Z,24.30
2018-12-06T19:25:46.194Z,24.70
2018-12-06T19:28:19.337Z,24.70
2018-12-06T19:30:47.952Z,22.10
2018-12-06T19:33:23.383Z,22.80
2018-12-06T19:35:52.020Z,22.50
2018-12-06T19:38:20.646Z,24.83
2018-12-06T19:40:49.299Z,20.57
2018-12-06T19:43:17.899Z,21.73
2018-12-06T19:45:46.539Z,19.03
2018-12-06T19:48:15.152Z,21.30
2018-12-06T19:50:43.801Z,20.67
2018-12-06T19:53:12.536Z,21.37
2018-12-06T19:55:41.182Z,20.40
2018-12-06T19:58:09.819Z,20.73
2018-12-06T20:00:38.505Z,23.10
2018-12-06T20:03:07.123Z,18.23
2018-12-06T20:05:35.747Z,19.00
2018-12-06T20:08:04.431Z,21.27
2018-12-06T20:10:33.043Z,19.23
2018-12-06T20:13:01.618Z,20.47
2018-12-06T20:15:30.290Z,21.20
2018-12-06T20:17:58.864Z,20.10
2018-12-06T20:20:27.515Z,22.33
2018-12-06T20:22:56.123Z,22.47
2018-12-06T20:25:24.759Z,22.10
2018-12-06T20:27:53.413Z,20.40
2018-12-06T20:30:22.035Z,24.30
2018-12-06T20:32:50.691Z,21.60
2018-12-06T20:35:19.312Z,22.63
2018-12-06T20:37:47.956Z,22.80
2018-12-06T20:40:16.640Z,23.80
2018-12-06T20:42:45.255Z,20.60
2018-12-06T20:45:13.898Z,22.93
2018-12-06T20:47:42.523Z,23.63
2018-12-06T20:50:11.132Z,23.33
2018-12-06T20:52:39.726Z,22.83
2018-12-06T20:55:08.396Z,23.67
2018-12-06T20:57:37.684Z,23.93
2018-12-06T21:00:06.749Z,25.80
2018-12-06T21:02:35.389Z,26.87
2018-12-06T21:05:04.291Z,26.20
2018-12-06T21:07:32.924Z,25.03
2018-12-06T21:10:01.547Z,23.33
2018-12-06T21:12:30.173Z,25.10
2018-12-06T21:14:58.788Z,24.87
2018-12-06T21:17:27.431Z,23.90
2018-12-06T21:19:56.047Z,24.57
2018-12-06T21:22:24.699Z,24.30
2018-12-06T21:24:53.385Z,24.83
2018-12-06T21:27:22.027Z,24.60
2018-12-06T21:29:50.643Z,24.63
2018-12-06T21:32:19.274Z,23.63
2018-12-06T21:34:48.030Z,23.00
2018-12-06T21:37:16.650Z,26.10
2018-12-06T21:39:45.297Z,25.27
2018-12-06T21:42:13.908Z,24.57
2018-12-06T21:44:42.511Z,24.33
2018-12-06T21:47:15.335Z,24.53
2018-12-06T21:49:43.914Z,26.93
2018-12-06T21:52:12.575Z,26.40
2018-12-06T21:54:41.187Z,26.70
2018-12-06T21:57:09.755Z,25.53
2018-12-06T21:59:38.385Z,26.57
2018-12-06T22:02:18.027Z,26.67
2018-12-06T22:04:46.642Z,26.57
2018-12-06T22:07:15.262Z,25.13
2018-12-06T22:09:43.938Z,28.80
2018-12-06T22:12:12.589Z,25.93
2018-12-06T22:14:41.210Z,25.17
2018-12-06T22:17:09.842Z,24.20
2018-12-06T22:19:38.487Z,26.47
2018-12-06T22:22:07.106Z,23.57
2018-12-06T22:24:35.734Z,27.10
2018-12-06T22:27:04.399Z,23.70
2018-12-06T22:29:33.047Z,23.70
2018-12-06T22:32:01.707Z,23.70
2018-12-06T22:34:30.302Z,23.00
2018-12-06T22:36:58.939Z,24.17
2018-12-06T22:39:27.885Z,23.17
2018-12-06T22:41:56.542Z,23.40
2018-12-06T22:44:25.151Z,22.17
2018-12-06T22:46:53.780Z,22.93
2018-12-06T22:49:22.523Z,21.07
2018-12-06T22:51:51.135Z,20.80
2018-12-06T22:54:19.766Z,21.10
2018-12-06T22:56:48.422Z,20.33
2018-12-06T22:59:17.121Z,20.50
2018-12-06T23:01:46.038Z,19.87
2018-12-06T23:04:14.811Z,18.53
2018-12-06T23:06:43.462Z,18.20
2018-12-06T23:09:12.086Z,18.50
2018-12-06T23:11:40.727Z,17.00
2018-12-06T23:14:09.481Z,17.63
2018-12-06T23:16:38.102Z,16.97
2018-12-06T23:19:06.726Z,17.20
2018-12-06T23:21:35.354Z,15.57
2018-12-06T23:24:04.045Z,15.83
2018-12-06T23:26:33.114Z,14.13
2018-12-06T23:29:01.823Z,15.77
2018-12-06T23:31:30.443Z,14.60
2018-12-06T23:33:59.067Z,14.67
2018-12-06T23:36:27.700Z,16.07
2018-12-06T23:38:56.339Z,14.67
2018-12-06T23:41:24.998Z,16.17
2018-12-06T23:43:53.612Z,15.90
2018-12-06T23:46:22.260Z,15.27
2018-12-06T23:48:50.863Z,16.50
2018-12-06T23:51:36.109Z,15.40
2018-12-06T23:54:04.758Z,18.10
2018-12-06T23:56:33.369Z,17.40
2018-12-06T23:59:02.219Z,17.27
